createdAt,value
2018-09-24T00:00:39.077Z,0
2018-09-24T00:01:48.911Z,0
2018-09-24T00:02:59.007Z,0
2018-09-24T00:04:08.861Z,0
2018-09-24T00:05:18.938Z,0
2018-09-24T00:06:29.024Z,0
2018-09-24T00:07:39.101Z,0
2018-09-24T00:08:49.174Z,0
2018-09-24T00:09:59.245Z,0
2018-09-24T00:11:09.334Z,0
2018-09-24T00:12:19.152Z,0
2018-09-24T00:13:29.299Z,0
2018-09-24T00:14:39.363Z,0
2018-09-24T00:15:49.445Z,0
2018-09-24T00:16:59.496Z,0
2018-09-24T00:18:09.574Z,0
2018-09-24T00:19:19.675Z,0
2018-09-24T00:20:29.745Z,0
2018-09-24T00:21:39.823Z,0
2018-09-24T00:22:49.895Z,0
2018-09-24T00:23:59.970Z,0
2018-09-24T00:25:10.907Z,0
2018-09-24T00:26:20.979Z,0
2018-09-24T00:27:30.796Z,0
2018-09-24T00:28:40.655Z,0
2018-09-24T00:29:50.196Z,0
2018-09-24T00:31:03.122Z,0
2018-09-24T00:32:13.214Z,0
2018-09-24T00:33:23.291Z,0
2018-09-24T00:34:33.400Z,0
2018-09-24T00:35:43.241Z,0
2018-09-24T00:36:53.371Z,0
2018-09-24T00:38:03.187Z,0
2018-09-24T00:39:13.269Z,0
2018-09-24T00:40:23.348Z,0
2018-09-24T00:41:33.163Z,0
2018-09-24T00:42:42.733Z,0
2018-09-24T00:43:52.550Z,0
2018-09-24T00:45:02.683Z,0
2018-09-24T00:46:12.785Z,0
2018-09-24T00:47:22.885Z,0
2018-09-24T00:48:33.016Z,0
2018-09-24T00:49:42.861Z,0
2018-09-24T00:50:52.411Z,0
2018-09-24T00:52:02.474Z,0
2018-09-24T00:53:12.015Z,0
2018-09-24T00:54:21.892Z,0
2018-09-24T00:55:31.979Z,0
2018-09-24T00:56:41.804Z,0
2018-09-24T00:57:51.358Z,0
2018-09-24T00:59:01.452Z,0
2018-09-24T01:00:13.224Z,0
2018-09-24T01:01:23.313Z,0
2018-09-24T01:02:33.407Z,0
2018-09-24T01:03:43.473Z,0
2018-09-24T01:04:53.538Z,0
2018-09-24T01:06:03.609Z,0
2018-09-24T01:07:13.680Z,0
2018-09-24T01:08:23.492Z,0
2018-09-24T01:09:32.779Z,0
2018-09-24T01:10:42.892Z,0
2018-09-24T01:11:52.706Z,0
2018-09-24T01:13:03.686Z,0
2018-09-24T01:14:13.774Z,0
2018-09-24T01:15:24.148Z,0
2018-09-24T01:16:33.980Z,0
2018-09-24T01:17:44.099Z,0
2018-09-24T01:18:54.179Z,0
2018-09-24T01:20:03.996Z,0
2018-09-24T01:21:13.807Z,0
2018-09-24T01:22:23.887Z,0
2018-09-24T01:23:33.968Z,0
2018-09-24T01:24:44.059Z,0
2018-09-24T01:25:54.137Z,0
2018-09-24T01:27:03.950Z,0
2018-09-24T01:28:14.041Z,0
2018-09-24T01:29:24.162Z,0
2018-09-24T01:30:34.251Z,0
2018-09-24T01:31:44.336Z,0
2018-09-24T01:32:54.423Z,0
2018-09-24T01:34:04.504Z,0
2018-09-24T01:35:14.665Z,0
2018-09-24T01:36:24.734Z,0
2018-09-24T01:37:34.799Z,0
2018-09-24T01:38:44.646Z,0
2018-09-24T01:39:54.709Z,0
2018-09-24T01:41:05.112Z,0
2018-09-24T01:42:15.187Z,0
2018-09-24T01:43:25.254Z,0
2018-09-24T01:44:35.307Z,0
2018-09-24T01:45:45.132Z,0
2018-09-24T01:46:55.253Z,0
2018-09-24T01:48:06.327Z,0
2018-09-24T01:49:16.254Z,0
2018-09-24T01:50:26.329Z,0
2018-09-24T01:51:36.394Z,0
2018-09-24T01:52:46.248Z,0
2018-09-24T01:53:56.321Z,0
2018-09-24T01:55:06.410Z,0
2018-09-24T01:56:16.487Z,0
2018-09-24T01:57:26.609Z,0
2018-09-24T01:58:36.671Z,0
2018-09-24T01:59:46.742Z,0
2018-09-24T02:00:56.827Z,0
2018-09-24T02:02:06.905Z,0
2018-09-24T02:03:17.028Z,0
2018-09-24T02:04:27.138Z,0
2018-09-24T02:05:37.202Z,0
2018-09-24T02:06:47.284Z,0
2018-09-24T02:07:57.099Z,0
2018-09-24T02:09:06.924Z,0
2018-09-24T02:10:17.057Z,0
2018-09-24T02:11:27.151Z,0
2018-09-24T02:12:37.239Z,0
2018-09-24T02:13:47.318Z,0
2018-09-24T02:14:57.397Z,0
2018-09-24T02:16:07.481Z,0
2018-09-24T02:17:17.564Z,0
2018-09-24T02:18:27.626Z,0
2018-09-24T02:19:37.696Z,0
2018-09-24T02:20:47.847Z,0
2018-09-24T02:21:57.990Z,0
2018-09-24T02:23:08.062Z,0
2018-09-24T02:24:17.883Z,0
2018-09-24T02:25:27.946Z,0
2018-09-24T02:26:38.023Z,0
2018-09-24T02:27:47.939Z,0
2018-09-24T02:28:58.036Z,0
2018-09-24T02:30:08.119Z,0
2018-09-24T02:31:18.181Z,0
2018-09-24T02:32:28.111Z,0
2018-09-24T02:33:38.347Z,0
2018-09-24T02:34:48.423Z,0
2018-09-24T02:35:58.234Z,0
2018-09-24T02:37:08.294Z,0
2018-09-24T02:38:18.117Z,0
2018-09-24T02:39:27.934Z,0
2018-09-24T02:40:38.005Z,0
2018-09-24T02:41:48.095Z,0
2018-09-24T02:42:57.917Z,0
2018-09-24T02:44:07.982Z,0
2018-09-24T02:45:18.046Z,0
2018-09-24T02:46:28.122Z,0
2018-09-24T02:47:38.003Z,0
2018-09-24T02:48:48.083Z,0
2018-09-24T02:49:58.160Z,0
2018-09-24T02:51:07.979Z,0
2018-09-24T02:52:18.042Z,0
2018-09-24T02:53:28.122Z,0
2018-09-24T02:54:38.199Z,0
2018-09-24T02:55:48.280Z,0
2018-09-24T02:56:58.354Z,0
2018-09-24T02:58:08.423Z,0
2018-09-24T02:59:18.492Z,0
2018-09-24T03:00:28.593Z,0
2018-09-24T03:01:38.762Z,0
2018-09-24T03:02:48.841Z,0
2018-09-24T03:34:40.591Z,0
2018-09-24T03:35:50.406Z,0
2018-09-24T03:37:00.466Z,0
2018-09-24T03:38:10.554Z,0
2018-09-24T03:39:20.629Z,0
2018-09-24T03:40:30.685Z,0
2018-09-24T03:41:40.861Z,0
2018-09-24T03:42:50.681Z,0
2018-09-24T03:44:00.496Z,0
2018-09-24T03:45:10.577Z,0
2018-09-24T03:46:20.673Z,0
2018-09-24T03:47:30.763Z,0
2018-09-24T03:48:40.844Z,0
2018-09-24T03:49:50.921Z,0
2018-09-24T03:51:01.029Z,0
2018-09-24T03:52:10.701Z,0
2018-09-24T03:53:20.778Z,0
2018-09-24T03:54:31.161Z,0
2018-09-24T03:55:41.237Z,0
2018-09-24T03:56:51.342Z,0
2018-09-24T03:58:01.480Z,0
2018-09-24T03:59:11.943Z,0
2018-09-24T04:00:22.031Z,0
2018-09-24T04:01:32.129Z,0
2018-09-24T04:02:42.198Z,0
2018-09-24T04:03:52.320Z,0
2018-09-24T04:05:02.396Z,0
2018-09-24T04:06:11.931Z,0
2018-09-24T04:07:22.016Z,0
2018-09-24T04:08:32.150Z,0
2018-09-24T04:09:42.624Z,0
2018-09-24T04:10:53.155Z,0
2018-09-24T04:12:03.277Z,0
2018-09-24T04:13:13.090Z,0
2018-09-24T04:14:23.181Z,0
2018-09-24T04:15:33.003Z,0
2018-09-24T04:16:42.814Z,0
2018-09-24T04:17:52.636Z,0
2018-09-24T04:19:03.289Z,0
2018-09-24T04:20:13.392Z,0
2018-09-24T04:21:23.485Z,0
2018-09-24T04:22:33.560Z,0
2018-09-24T04:23:43.635Z,0
2018-09-24T04:24:53.755Z,0
2018-09-24T04:26:03.968Z,0
2018-09-24T04:27:14.081Z,0
2018-09-24T04:28:24.139Z,0
2018-09-24T04:29:34.202Z,0
2018-09-24T04:30:44.381Z,0
2018-09-24T04:31:54.453Z,0
2018-09-24T04:33:04.528Z,0
2018-09-24T04:34:14.597Z,0
2018-09-24T04:35:24.667Z,0
2018-09-24T04:36:34.528Z,0
2018-09-24T04:37:44.611Z,0
2018-09-24T04:38:54.694Z,0
2018-09-24T04:40:04.775Z,0
2018-09-24T04:41:14.829Z,0
2018-09-24T04:42:24.709Z,0
2018-09-24T04:43:34.525Z,0
2018-09-24T04:44:44.375Z,0
2018-09-24T04:45:54.442Z,0
2018-09-24T04:47:04.279Z,0
2018-09-24T04:48:14.715Z,0
2018-09-24T04:49:25.309Z,0
2018-09-24T04:50:35.386Z,5
2018-09-24T04:51:45.472Z,5
2018-09-24T04:52:55.578Z,5
2018-09-24T04:54:06.213Z,5
2018-09-24T04:55:16.296Z,5
2018-09-24T04:56:26.387Z,5
2018-09-24T04:57:36.461Z,5
2018-09-24T04:58:47.249Z,5
2018-09-24T04:59:57.386Z,5
2018-09-24T05:01:07.378Z,5
2018-09-24T05:02:17.189Z,5
2018-09-24T05:03:26.748Z,10
2018-09-24T05:04:36.831Z,10
2018-09-24T05:05:46.929Z,10
2018-09-24T05:06:57.002Z,10
2018-09-24T05:08:07.075Z,10
2018-09-24T05:09:17.153Z,15
2018-09-24T05:10:27.189Z,15
2018-09-24T05:11:37.007Z,15
2018-09-24T05:12:47.524Z,15
2018-09-24T05:13:57.599Z,15
2018-09-24T05:15:08.688Z,15
2018-09-24T05:16:18.271Z,15
2018-09-24T05:17:28.424Z,15
2018-09-24T05:18:38.532Z,20
2018-09-24T05:19:48.614Z,20
2018-09-24T05:20:58.674Z,20
2018-09-24T05:22:08.802Z,20
2018-09-24T05:23:18.652Z,20
2018-09-24T05:24:28.711Z,25
2018-09-24T05:25:38.772Z,25
2018-09-24T05:26:48.576Z,35
2018-09-24T05:27:58.664Z,35
2018-09-24T05:29:09.407Z,40
2018-09-24T05:30:19.230Z,55
2018-09-24T05:31:29.047Z,60
2018-09-24T05:32:39.138Z,55
2018-09-24T05:33:48.730Z,55
2018-09-24T05:34:58.820Z,55
2018-09-24T05:36:08.894Z,60
2018-09-24T05:37:18.723Z,65
2018-09-24T05:38:28.304Z,65
2018-09-24T05:39:38.427Z,65
2018-09-24T05:40:48.494Z,65
2018-09-24T05:41:58.581Z,70
2018-09-24T05:43:08.641Z,75
2018-09-24T05:44:18.466Z,75
2018-09-24T05:45:28.300Z,80
2018-09-24T05:46:38.413Z,80
2018-09-24T05:47:48.575Z,85
2018-09-24T05:48:58.061Z,85
2018-09-24T05:50:10.004Z,90
2018-09-24T05:51:20.186Z,90
2018-09-24T05:52:30.260Z,90
2018-09-24T05:53:40.352Z,85
2018-09-24T05:54:50.418Z,85
2018-09-24T05:56:01.182Z,90
2018-09-24T05:57:11.011Z,90
2018-09-24T05:58:21.092Z,90
2018-09-24T05:59:31.207Z,90
2018-09-24T06:00:41.288Z,90
2018-09-24T06:01:51.347Z,90
2018-09-24T06:03:01.466Z,95
2018-09-24T06:04:12.035Z,90
2018-09-24T06:05:21.834Z,90
2018-09-24T06:06:31.666Z,90
2018-09-24T06:07:41.480Z,80
2018-09-24T06:08:51.566Z,75
2018-09-24T06:10:01.729Z,75
2018-09-24T06:11:11.828Z,80
2018-09-24T06:12:21.892Z,95
2018-09-24T06:13:31.782Z,110
2018-09-24T06:14:41.951Z,120
2018-09-24T06:15:52.048Z,120
2018-09-24T06:17:02.130Z,135
2018-09-24T06:18:11.949Z,140
2018-09-24T06:19:22.031Z,145
2018-09-24T06:20:32.126Z,150
2018-09-24T06:21:42.244Z,150
2018-09-24T06:22:52.326Z,155
2018-09-24T06:24:02.401Z,160
2018-09-24T06:25:12.213Z,150
2018-09-24T06:26:22.294Z,145
2018-09-24T06:27:32.362Z,160
2018-09-24T06:28:42.284Z,140
2018-09-24T06:29:52.119Z,135
2018-09-24T06:31:02.219Z,135
2018-09-24T06:32:12.310Z,120
2018-09-24T06:33:22.427Z,130
2018-09-24T06:34:32.790Z,95
2018-09-24T06:35:42.884Z,90
2018-09-24T06:36:52.958Z,105
2018-09-24T06:38:03.324Z,140
2018-09-24T06:39:12.884Z,115
2018-09-24T06:40:23.024Z,110
2018-09-24T06:41:32.842Z,85
2018-09-24T06:42:42.927Z,70
2018-09-24T06:43:52.751Z,55
2018-09-24T06:45:02.880Z,50
2018-09-24T06:46:12.980Z,55
2018-09-24T06:47:23.072Z,70
2018-09-24T06:48:32.899Z,65
2018-09-24T06:49:43.396Z,75
2018-09-24T06:50:53.459Z,100
2018-09-24T06:52:03.264Z,100
2018-09-24T06:53:13.082Z,105
2018-09-24T06:54:22.916Z,100
2018-09-24T06:55:32.721Z,100
2018-09-24T06:56:42.802Z,105
2018-09-24T06:57:52.879Z,95
2018-09-24T06:59:02.984Z,100
2018-09-24T07:00:13.651Z,95
2018-09-24T07:01:23.728Z,85
2018-09-24T07:02:33.856Z,95
2018-09-24T07:03:43.671Z,120
2018-09-24T07:04:53.767Z,130
2018-09-24T07:06:03.880Z,130
2018-09-24T07:07:13.956Z,135
2018-09-24T07:08:23.788Z,105
2018-09-24T07:09:33.880Z,95
2018-09-24T07:10:43.957Z,115
2018-09-24T07:11:54.045Z,135
2018-09-24T07:13:03.865Z,120
2018-09-24T07:14:13.964Z,105
2018-09-24T07:15:24.016Z,105
2018-09-24T07:16:34.096Z,120
2018-09-24T07:17:44.204Z,130
2018-09-24T07:18:54.289Z,115
2018-09-24T07:20:04.363Z,100
2018-09-24T07:21:14.442Z,90
2018-09-24T07:22:24.559Z,70
2018-09-24T07:23:34.632Z,65
2018-09-24T07:24:44.720Z,55
2018-09-24T07:25:54.821Z,50
2018-09-24T07:27:04.634Z,55
2018-09-24T07:28:14.863Z,50
2018-09-24T07:29:24.971Z,50
2018-09-24T07:30:34.261Z,50
2018-09-24T07:31:44.423Z,50
2018-09-24T07:32:54.553Z,45
2018-09-24T07:34:04.633Z,45
2018-09-24T07:35:14.715Z,50
2018-09-24T07:36:24.527Z,55
2018-09-24T07:37:34.672Z,60
2018-09-24T07:38:44.778Z,65
2018-09-24T07:39:54.329Z,80
2018-09-24T07:41:04.400Z,95
2018-09-24T07:42:14.216Z,95
2018-09-24T07:43:24.844Z,115
2018-09-24T07:44:34.609Z,125
2018-09-24T07:45:44.697Z,125
2018-09-24T07:46:54.511Z,135
2018-09-24T07:48:04.584Z,140
2018-09-24T07:49:14.475Z,140
2018-09-24T07:50:24.557Z,130
2018-09-24T07:51:34.393Z,135
2018-09-24T07:52:44.477Z,155
2018-09-24T07:53:54.589Z,170
2018-09-24T07:55:04.668Z,190
2018-09-24T07:56:14.770Z,150
2018-09-24T07:57:24.837Z,155
2018-09-24T07:58:34.664Z,185
2018-09-24T07:59:44.740Z,235
2018-09-24T08:00:54.961Z,230
2018-09-24T08:02:06.413Z,205
2018-09-24T08:03:16.234Z,180
2018-09-24T08:04:26.051Z,175
2018-09-24T08:05:36.135Z,165
2018-09-24T08:06:45.971Z,195
2018-09-24T08:07:56.057Z,180
2018-09-24T08:09:08.285Z,180
2018-09-24T08:10:18.357Z,205
2018-09-24T08:11:28.167Z,210
2018-09-24T08:12:38.324Z,185
2018-09-24T08:13:48.402Z,215
2018-09-24T08:14:58.473Z,190
2018-09-24T08:16:08.299Z,170
2018-09-24T08:17:18.379Z,160
2018-09-24T08:18:28.467Z,160
2018-09-24T08:19:38.554Z,160
2018-09-24T08:20:48.157Z,155
2018-09-24T08:21:57.983Z,195
2018-09-24T08:23:08.076Z,160
2018-09-24T08:24:18.208Z,190
2018-09-24T08:25:28.308Z,120
2018-09-24T08:26:38.402Z,115
2018-09-24T08:27:48.469Z,105
2018-09-24T08:28:59.002Z,105
2018-09-24T08:30:08.845Z,100
2018-09-24T08:31:18.659Z,105
2018-09-24T08:32:28.737Z,115
2018-09-24T08:33:38.829Z,110
2018-09-24T08:34:48.956Z,95
2018-09-24T08:35:59.051Z,90
2018-09-24T08:37:09.119Z,95
2018-09-24T08:38:19.574Z,100
2018-09-24T08:39:29.651Z,115
2018-09-24T08:40:39.742Z,125
2018-09-24T08:41:49.822Z,110
2018-09-24T08:42:59.910Z,105
2018-09-24T08:44:10.387Z,105
2018-09-24T08:45:20.478Z,105
2018-09-24T08:46:30.584Z,100
2018-09-24T08:47:40.683Z,105
2018-09-24T08:48:50.769Z,125
2018-09-24T08:50:03.294Z,150
2018-09-24T08:51:13.108Z,160
2018-09-24T08:52:23.184Z,185
2018-09-24T08:53:33.617Z,265
2018-09-24T08:54:43.753Z,225
2018-09-24T08:55:53.857Z,190
2018-09-24T08:57:04.372Z,190
2018-09-24T08:58:14.196Z,185
2018-09-24T08:59:24.384Z,275
2018-09-24T09:00:34.523Z,215
2018-09-24T09:01:44.610Z,230
2018-09-24T09:02:54.737Z,225
2018-09-24T09:04:04.888Z,220
2018-09-24T09:05:15.085Z,230
2018-09-24T09:06:25.235Z,225
2018-09-24T09:07:35.314Z,195
2018-09-24T09:08:45.412Z,205
2018-09-24T09:09:55.238Z,195
2018-09-24T09:11:05.381Z,190
2018-09-24T09:12:15.452Z,180
2018-09-24T09:13:25.262Z,170
2018-09-24T09:14:35.072Z,165
2018-09-24T09:15:45.137Z,165
2018-09-24T09:16:55.241Z,170
2018-09-24T09:18:05.060Z,170
2018-09-24T09:19:15.137Z,175
2018-09-24T09:20:25.215Z,190
2018-09-24T09:21:35.289Z,195
2018-09-24T09:22:45.358Z,195
2018-09-24T09:24:01.992Z,225
2018-09-24T09:25:11.881Z,195
2018-09-24T09:26:21.704Z,190
2018-09-24T09:27:31.766Z,190
2018-09-24T09:28:42.007Z,210
2018-09-24T09:29:52.100Z,210
2018-09-24T09:31:01.900Z,195
2018-09-24T09:32:11.449Z,195
2018-09-24T09:33:21.263Z,195
2018-09-24T09:34:31.382Z,205
2018-09-24T09:35:41.459Z,215
2018-09-24T09:36:51.549Z,205
2018-09-24T09:38:01.607Z,200
2018-09-24T09:39:11.692Z,200
2018-09-24T09:40:21.815Z,205
2018-09-24T09:41:31.885Z,205
2018-09-24T09:42:41.967Z,200
2018-09-24T09:43:51.780Z,190
2018-09-24T09:45:01.869Z,190
2018-09-24T09:46:11.938Z,175
2018-09-24T09:47:22.052Z,180
2018-09-24T09:48:32.142Z,190
2018-09-24T09:49:42.249Z,185
2018-09-24T09:50:52.072Z,170
2018-09-24T09:52:02.208Z,160
2018-09-24T09:53:12.292Z,160
2018-09-24T09:54:22.360Z,165
2018-09-24T09:55:32.173Z,180
2018-09-24T09:56:42.244Z,185
2018-09-24T09:57:52.336Z,200
2018-09-24T09:59:02.320Z,270
2018-09-24T10:00:12.430Z,215
2018-09-24T10:01:22.500Z,150
2018-09-24T10:02:32.629Z,145
2018-09-24T10:03:42.763Z,155
2018-09-24T10:04:53.263Z,170
2018-09-24T10:06:03.412Z,180
2018-09-24T10:07:13.227Z,190
2018-09-24T10:08:23.309Z,190
2018-09-24T10:09:33.409Z,190
2018-09-24T10:10:43.515Z,190
2018-09-24T10:11:53.580Z,205
2018-09-24T10:13:04.681Z,215
2018-09-24T10:14:14.508Z,210
2018-09-24T10:15:24.657Z,190
2018-09-24T10:16:34.470Z,190
2018-09-24T10:17:44.550Z,175
2018-09-24T10:18:54.644Z,145
2018-09-24T10:20:04.731Z,120
2018-09-24T10:21:14.813Z,120
2018-09-24T10:22:24.905Z,145
2018-09-24T10:23:34.725Z,125
2018-09-24T10:24:44.811Z,140
2018-09-24T10:25:54.908Z,245
2018-09-24T10:27:04.988Z,155
2018-09-24T10:28:15.068Z,205
2018-09-24T10:29:25.138Z,155
2018-09-24T10:30:34.943Z,265
2018-09-24T10:31:45.077Z,280
2018-09-24T10:32:55.024Z,295
2018-09-24T10:34:05.113Z,210
2018-09-24T10:35:15.201Z,300
2018-09-24T10:36:25.277Z,230
2018-09-24T10:37:35.110Z,190
2018-09-24T10:38:44.707Z,215
2018-09-24T10:39:55.042Z,235
2018-09-24T10:41:05.133Z,185
2018-09-24T10:42:14.958Z,165
2018-09-24T10:43:25.053Z,235
2018-09-24T10:44:34.868Z,150
2018-09-24T10:45:44.959Z,250
2018-09-24T10:46:55.046Z,240
2018-09-24T10:48:07.698Z,240
2018-09-24T10:49:17.526Z,220
2018-09-24T10:50:27.595Z,215
2018-09-24T10:51:37.409Z,210
2018-09-24T10:52:47.531Z,145
2018-09-24T10:53:57.683Z,165
2018-09-24T10:55:07.871Z,200
2018-09-24T10:56:18.033Z,210
2018-09-24T10:57:28.112Z,170
2018-09-24T10:58:37.935Z,220
2018-09-24T10:59:48.411Z,220
2018-09-24T11:00:58.990Z,135
2018-09-24T11:02:09.285Z,215
2018-09-24T11:03:19.167Z,215
2018-09-24T11:04:29.237Z,225
2018-09-24T11:05:39.319Z,230
2018-09-24T11:06:49.407Z,250
2018-09-24T11:07:59.484Z,270
2018-09-24T11:09:09.349Z,280
2018-09-24T11:10:19.760Z,265
2018-09-24T11:11:29.843Z,260
2018-09-24T11:12:39.921Z,280
2018-09-24T11:13:49.749Z,325
2018-09-24T11:14:59.600Z,225
2018-09-24T11:16:10.623Z,220
2018-09-24T11:17:22.672Z,230
2018-09-24T11:18:32.880Z,210
2018-09-24T11:19:42.879Z,220
2018-09-24T11:20:52.721Z,185
2018-09-24T11:22:03.510Z,180
2018-09-24T11:23:14.091Z,180
2018-09-24T11:24:23.922Z,180
2018-09-24T11:25:33.759Z,180
2018-09-24T11:26:43.585Z,185
2018-09-24T11:27:53.405Z,180
2018-09-24T11:29:03.405Z,165
2018-09-24T11:30:13.488Z,140
2018-09-24T11:31:23.639Z,130
2018-09-24T11:32:33.455Z,130
2018-09-24T11:33:43.283Z,120
2018-09-24T11:34:53.376Z,115
2018-09-24T11:36:03.675Z,115
2018-09-24T11:37:13.846Z,110
2018-09-24T11:38:23.669Z,105
2018-09-24T11:39:33.483Z,100
2018-09-24T11:40:43.560Z,105
2018-09-24T11:41:53.621Z,125
2018-09-24T11:43:03.756Z,135
2018-09-24T11:44:13.837Z,135
2018-09-24T11:45:23.910Z,150
2018-09-24T11:46:33.018Z,180
2018-09-24T11:47:43.188Z,170
2018-09-24T11:48:53.266Z,170
2018-09-24T11:50:05.799Z,155
2018-09-24T11:51:15.878Z,130
2018-09-24T11:52:25.996Z,105
2018-09-24T11:53:35.812Z,95
2018-09-24T11:54:45.932Z,85
2018-09-24T11:55:56.027Z,80
2018-09-24T11:57:05.969Z,75
2018-09-24T11:58:16.045Z,75
2018-09-24T11:59:26.124Z,75
2018-09-24T12:00:36.250Z,75
2018-09-24T12:01:46.342Z,65
2018-09-24T12:02:56.429Z,65
2018-09-24T12:04:06.243Z,85
2018-09-24T12:05:16.083Z,120
2018-09-24T12:06:25.893Z,140
2018-09-24T12:07:35.969Z,150
2018-09-24T12:08:46.094Z,150
2018-09-24T12:09:56.180Z,165
2018-09-24T12:11:06.266Z,165
2018-09-24T12:12:16.356Z,160
2018-09-24T12:13:26.434Z,140
2018-09-24T12:14:36.514Z,120
2018-09-24T12:15:46.591Z,125
2018-09-24T12:16:56.670Z,145
2018-09-24T12:18:07.090Z,150
2018-09-24T12:19:17.189Z,150
2018-09-24T12:20:27.276Z,145
2018-09-24T12:21:37.097Z,160
2018-09-24T12:22:47.218Z,165
2018-09-24T12:23:57.061Z,270
2018-09-24T12:25:07.166Z,205
2018-09-24T12:26:16.973Z,280
2018-09-24T12:27:27.072Z,155
2018-09-24T12:28:37.158Z,115
2018-09-24T12:29:47.214Z,85
2018-09-24T12:30:57.047Z,65
2018-09-24T12:32:07.153Z,60
2018-09-24T12:33:17.234Z,55
2018-09-24T12:34:27.041Z,55
2018-09-24T12:35:37.164Z,50
2018-09-24T12:36:47.252Z,50
2018-09-24T12:37:57.341Z,55
2018-09-24T12:39:07.541Z,75
2018-09-24T12:40:17.361Z,85
2018-09-24T12:41:28.445Z,95
2018-09-24T12:42:38.526Z,100
2018-09-24T12:43:48.597Z,105
2018-09-24T12:44:58.668Z,150
2018-09-24T12:46:08.481Z,110
2018-09-24T12:47:18.607Z,105
2018-09-24T12:48:28.855Z,110
2018-09-24T12:49:38.980Z,115
2018-09-24T12:50:49.092Z,125
2018-09-24T12:51:59.167Z,130
2018-09-24T12:53:09.288Z,125
2018-09-24T12:54:19.358Z,115
2018-09-24T12:55:29.436Z,90
2018-09-24T12:56:39.530Z,70
2018-09-24T12:57:49.647Z,60
2018-09-24T12:58:59.453Z,60
2018-09-24T13:00:09.821Z,65
2018-09-24T13:01:19.911Z,70
2018-09-24T13:02:29.693Z,90
2018-09-24T13:03:39.499Z,100
2018-09-24T13:04:49.584Z,115
2018-09-24T13:05:59.646Z,110
2018-09-24T13:07:09.720Z,110
2018-09-24T13:08:19.862Z,110
2018-09-24T13:09:29.462Z,130
2018-09-24T13:10:39.519Z,145
2018-09-24T13:11:49.588Z,150
2018-09-24T13:12:59.699Z,185
2018-09-24T13:14:10.941Z,145
2018-09-24T13:15:21.032Z,125
2018-09-24T13:16:31.213Z,115
2018-09-24T13:17:41.314Z,115
2018-09-24T13:18:51.395Z,125
2018-09-24T13:20:01.470Z,135
2018-09-24T13:21:11.618Z,140
2018-09-24T13:22:21.440Z,130
2018-09-24T13:23:31.522Z,225
2018-09-24T13:24:41.666Z,195
2018-09-24T13:25:51.741Z,195
2018-09-24T13:27:01.708Z,180
2018-09-24T13:28:11.854Z,185
2018-09-24T13:29:21.945Z,180
2018-09-24T13:30:32.076Z,180
2018-09-24T13:31:42.172Z,175
2018-09-24T13:32:52.497Z,175
2018-09-24T13:34:02.730Z,175
2018-09-24T13:35:12.812Z,175
2018-09-24T13:36:22.897Z,175
2018-09-24T13:37:32.990Z,180
2018-09-24T13:38:43.088Z,180
2018-09-24T13:39:53.160Z,180
2018-09-24T13:41:05.099Z,190
2018-09-24T13:42:15.229Z,135
2018-09-24T13:43:25.749Z,195
2018-09-24T13:44:35.904Z,185
2018-09-24T13:45:46.000Z,190
2018-09-24T13:46:56.111Z,150
2018-09-24T13:48:05.934Z,125
2018-09-24T13:49:16.055Z,130
2018-09-24T13:50:26.148Z,150
2018-09-24T13:51:35.974Z,85
2018-09-24T13:52:46.071Z,70
2018-09-24T13:53:56.168Z,45
2018-09-24T13:55:06.258Z,35
2018-09-24T13:56:16.343Z,25
2018-09-24T13:57:26.422Z,20
2018-09-24T13:58:36.382Z,20
2018-09-24T13:59:46.206Z,20
2018-09-24T14:00:56.300Z,35
2018-09-24T14:02:06.393Z,50
2018-09-24T14:03:16.485Z,70
2018-09-24T14:04:26.554Z,80
2018-09-24T14:05:36.439Z,85
2018-09-24T14:06:46.264Z,90
2018-09-24T14:07:56.376Z,85
2018-09-24T14:09:06.532Z,85
2018-09-24T14:10:16.362Z,90
2018-09-24T14:11:26.456Z,100
2018-09-24T14:12:36.553Z,95
2018-09-24T14:13:46.640Z,150
2018-09-24T14:14:57.576Z,125
2018-09-24T14:16:07.778Z,105
2018-09-24T14:17:18.242Z,145
2018-09-24T14:18:28.242Z,140
2018-09-24T14:19:39.755Z,140
2018-09-24T14:20:51.460Z,135
2018-09-24T14:22:04.215Z,135
2018-09-24T14:23:15.627Z,135
2018-09-24T14:24:28.080Z,135
2018-09-24T14:25:40.349Z,135
2018-09-24T14:26:52.229Z,135
2018-09-24T14:28:04.687Z,135
2018-09-24T14:29:16.411Z,130
2018-09-24T14:30:30.165Z,130
2018-09-24T14:31:41.986Z,130
2018-09-24T14:32:53.815Z,130
2018-09-24T14:34:05.837Z,125
2018-09-24T14:35:18.836Z,130
2018-09-24T14:36:30.361Z,125
2018-09-24T14:38:58.940Z,125
2018-09-24T14:40:10.352Z,125
2018-09-24T14:41:21.261Z,125
2018-09-24T14:42:31.959Z,125
2018-09-24T14:43:42.302Z,125
2018-09-24T14:44:52.976Z,125
2018-09-24T14:46:06.102Z,125
2018-09-24T14:47:17.221Z,130
2018-09-24T14:48:28.319Z,130
2018-09-24T14:49:39.667Z,130
2018-09-24T14:50:51.251Z,130
2018-09-24T14:52:01.882Z,125
2018-09-24T14:53:13.050Z,125
2018-09-24T14:54:23.574Z,125
2018-09-24T14:55:35.680Z,120
2018-09-24T14:56:46.826Z,120
2018-09-24T14:57:56.911Z,115
2018-09-24T14:59:07.120Z,115
2018-09-24T15:00:17.210Z,110
2018-09-24T15:01:27.331Z,110
2018-09-24T15:02:37.440Z,90
2018-09-24T15:03:47.694Z,95
2018-09-24T15:04:57.529Z,100
2018-09-24T15:06:07.599Z,100
2018-09-24T15:07:17.213Z,100
2018-09-24T15:08:27.061Z,100
2018-09-24T15:09:37.152Z,100
2018-09-24T15:10:47.288Z,105
2018-09-24T15:11:57.377Z,95
2018-09-24T15:13:08.358Z,95
2018-09-24T15:14:18.180Z,100
2018-09-24T15:15:28.254Z,95
2018-09-24T15:16:38.318Z,95
2018-09-24T15:17:48.418Z,95
2018-09-24T15:18:58.542Z,95
2018-09-24T15:20:08.633Z,95
2018-09-24T15:21:18.730Z,95
2018-09-24T15:22:28.843Z,95
2018-09-24T15:23:38.942Z,65
2018-09-24T15:24:49.076Z,65
2018-09-24T15:25:59.162Z,55
2018-09-24T15:27:09.353Z,80
2018-09-24T15:28:19.158Z,85
2018-09-24T15:29:28.986Z,85
2018-09-24T15:30:39.073Z,85
2018-09-24T15:31:48.658Z,80
2018-09-24T15:32:58.745Z,80
2018-09-24T15:34:08.849Z,80
2018-09-24T15:35:18.993Z,50
2018-09-24T15:36:29.099Z,60
2018-09-24T15:37:39.162Z,45
2018-09-24T15:38:49.055Z,40
2018-09-24T15:39:58.915Z,40
2018-09-24T15:41:09.378Z,40
2018-09-24T15:42:19.485Z,40
2018-09-24T15:43:29.570Z,40
2018-09-24T15:44:39.721Z,40
2018-09-24T15:45:49.545Z,40
2018-09-24T15:46:59.626Z,40
2018-09-24T15:48:09.445Z,40
2018-09-24T15:49:19.558Z,55
2018-09-24T15:50:29.653Z,45
2018-09-24T15:51:40.008Z,60
2018-09-24T15:52:49.829Z,55
2018-09-24T15:53:59.517Z,55
2018-09-24T15:55:09.366Z,55
2018-09-24T15:56:19.510Z,50
2018-09-24T15:57:28.784Z,50
2018-09-24T15:58:38.879Z,55
2018-09-24T15:59:48.698Z,55
2018-09-24T16:00:58.528Z,50
2018-09-24T16:02:08.664Z,50
2018-09-24T16:03:18.745Z,50
2018-09-24T16:04:28.573Z,45
2018-09-24T16:05:38.660Z,45
2018-09-24T16:06:48.751Z,45
2018-09-24T16:07:58.834Z,40
2018-09-24T16:09:10.796Z,30
2018-09-24T16:10:20.903Z,30
2018-09-24T16:11:30.741Z,30
2018-09-24T16:12:40.294Z,25
2018-09-24T16:13:50.177Z,25
2018-09-24T16:15:00.376Z,25
2018-09-24T16:16:10.454Z,25
2018-09-24T16:17:20.548Z,25
2018-09-24T16:18:30.371Z,20
2018-09-24T16:19:40.501Z,20
2018-09-24T16:20:50.317Z,20
2018-09-24T16:22:02.441Z,20
2018-09-24T16:23:12.283Z,20
2018-09-24T16:24:22.391Z,20
2018-09-24T16:25:32.496Z,15
2018-09-24T16:26:42.045Z,15
2018-09-24T16:27:52.118Z,15
2018-09-24T16:29:02.212Z,15
2018-09-24T16:30:12.028Z,15
2018-09-24T16:31:22.221Z,15
2018-09-24T16:32:32.368Z,15
2018-09-24T16:33:42.443Z,10
2018-09-24T16:34:52.572Z,10
2018-09-24T16:36:03.322Z,10
2018-09-24T16:37:13.439Z,10
2018-09-24T16:38:23.523Z,10
2018-09-24T16:39:33.348Z,10
2018-09-24T16:40:43.448Z,5
2018-09-24T16:41:53.285Z,5
2018-09-24T16:43:03.479Z,5
2018-09-24T16:44:13.309Z,5
2018-09-24T16:45:23.433Z,5
2018-09-24T16:46:33.524Z,5
2018-09-24T16:47:43.601Z,5
2018-09-24T16:48:53.500Z,5
2018-09-24T16:50:04.132Z,0
2018-09-24T16:51:14.210Z,0
2018-09-24T16:52:23.763Z,0
2018-09-24T16:53:33.838Z,0
2018-09-24T16:54:43.892Z,0
2018-09-24T16:55:53.695Z,0
2018-09-24T16:57:03.803Z,0
2018-09-24T16:58:13.895Z,0
2018-09-24T16:59:23.980Z,0
2018-09-24T17:00:34.107Z,0
2018-09-24T17:01:44.204Z,0
2018-09-24T17:02:54.320Z,0
2018-09-24T17:04:04.429Z,0
2018-09-24T17:05:14.018Z,0
2018-09-24T17:06:24.159Z,0
2018-09-24T17:07:34.262Z,0